Terminal Aerodrome Forecast
Issued by NWS

Home | Current Version | Previous Version | Text Only | Print | Product List | Glossary On
Versions: 1 2 3 4 5 6 7 8 9 10 11 12 13 14 15 16 17 18 19 20 21 22 23 24 25 26
641
FTUS45 KGGW 090520
TAFOLF
TAF
KOLF 090520Z 0906/1006 VRB04KT P6SM FEW019
     FM091200 06005KT P6SM BKN015
     FM091800 08006KT P6SM BKN035
     FM100400 08009KT P6SM BKN015=

USA.gov is the U.S. government's official web portal to all federal, state and local government web resources and services.